Skip Navigation Links
NOAA logo - Click to go to the NOAA homepage
NOAA's National Weather Service
Alaska Aviation Weather Unit
  NWS logo - Click to go to the NWS homepage
Left Navbar Graphic     19 AKDT = 03 GMT

   
NOAA is celebrating 200 years of science, service, and stewardship. Visit the NOAA 200th celebration Web site to learn more.
USA.gov is the U.S. Government's official Web portal to all Federal, state and local government Web resources and services.
Facebook
NWS on Facebook

Important Change Regarding the AAWU Web Presence

 

Over the last several months, the AAWU has been working to navigate its webpages to a nationally supported server. Security, as well as other needs, have necessitated the change.  We have been given an extension for the site changeover while we diligently work at addressing feedback received. As of July 14, 2017, aawu.arh.noaa.gov will be discontinued. The new AAWU web address is weather.gov/aawu. It is now live and will run in-parallel with the old site until it is discontinued on July 14, 2017. Please continue to send any feedback or questions regarding the new webpages to nws.ar.aawu.webauthors@noaa.gov.  Thank you for your patience during this time of transition.
AAWU Home :: Display TAF Add Bookmark
METAR PAFM 282156Z AUTO 15008KT 10SM FEW028 BKN050 18/08 A2984 RMK AO2
     SLP117 T01780083=

METAR PAFM 282256Z AUTO 15006KT 10SM FEW043 OVC055 18/08 A2985 RMK AO2
     SLP120 T01780083=

METAR PAFM 282356Z AUTO 15006KT 10SM OVC060 18/08 A2985 RMK AO2 SLP121
     60001 T01780078 10183 20144 51005=

METAR PAFM 290056Z AUTO 19011KT 10SM BKN055 OVC070 18/08 A2986 RMK AO2
     SLP122 T01780078=

METAR PAFM 290156Z AUTO 19009KT 10SM OVC055 18/08 A2985 RMK AO2
 SLP121 T01780083=


NOAA's National Weather Service
Alaska Aviation Weather Unit
6930 Sand Lake Road
Anchorage, AK 99502-1845
Disclaimer
Credits
Glossary
Privacy Policy
About Us
Career Opportunities
Contact AAWU Internet Services Site last modified: April, 17th 2012